Time;durP1;ratioP1;P1;durP2;ratioP2;P2;SDS_P1;SDS_P2;PMS_P1;PMS_P2;Temp;Humidity;BMP_temperature;BMP_pressure;BME280_temperature;BME280_humidity;BME280_pressure;Samples;Min_cycle;Max_cycle;Signal;HPM_P1;HPM_P2
2023/12/08 00:00:31;;;;;;;44.73;31.40;;;1.80;97.70;;;;;;5083929;28;20237;-63
2023/12/08 00:02:58;;;;;;;44.80;30.60;;;1.80;97.70;;;;;;5070303;28;20196;-63
2023/12/08 00:05:25;;;;;;;56.13;28.77;;;1.80;97.90;;;;;;5081484;28;20204;-64
2023/12/08 00:07:52;;;;;;;43.03;29.47;;;1.90;98.00;;;;;;5083910;28;20649;-63
2023/12/08 00:10:19;;;;;;;44.97;28.60;;;1.90;98.00;;;;;;5084016;28;20207;-66
2023/12/08 00:12:46;;;;;;;35.13;25.13;;;1.90;98.00;;;;;;5068798;28;20515;-63
2023/12/08 00:15:13;;;;;;;40.77;28.37;;;1.90;98.00;;;;;;5082722;28;20197;-63
2023/12/08 00:17:40;;;;;;;35.63;26.80;;;1.90;97.90;;;;;;5081326;28;20197;-63
2023/12/08 00:20:08;;;;;;;42.83;28.60;;;1.90;97.90;;;;;;5085700;28;20271;-63
2023/12/08 00:22:35;;;;;;;40.90;27.07;;;1.90;97.80;;;;;;5081053;28;20212;-63
2023/12/08 00:25:02;;;;;;;35.17;24.43;;;1.80;97.80;;;;;;5079866;28;20531;-64
2023/12/08 00:27:29;;;;;;;34.17;23.87;;;1.80;97.80;;;;;;5083553;28;20199;-64
2023/12/08 00:29:56;;;;;;;36.83;24.13;;;1.80;97.80;;;;;;5083889;28;20210;-64
2023/12/08 00:32:24;;;;;;;37.80;24.73;;;1.80;97.80;;;;;;5082572;28;20661;-63
2023/12/08 00:34:51;;;;;;;41.70;27.93;;;1.80;97.70;;;;;;5079115;28;20206;-64
2023/12/08 00:37:18;;;;;;;44.50;29.47;;;1.80;97.70;;;;;;5084604;28;20207;-64
2023/12/08 00:39:45;;;;;;;42.30;28.40;;;1.80;97.60;;;;;;5083196;28;20207;-64
2023/12/08 00:42:12;;;;;;;39.57;25.03;;;1.70;97.60;;;;;;5086210;28;20212;-64
2023/12/08 00:44:39;;;;;;;42.23;26.50;;;1.70;97.60;;;;;;5083907;28;20251;-64
2023/12/08 00:47:06;;;;;;;32.43;23.23;;;1.70;97.70;;;;;;5068151;28;20550;-64
2023/12/08 00:49:33;;;;;;;36.10;26.30;;;1.70;97.70;;;;;;5085412;28;20215;-63
2023/12/08 00:52:01;;;;;;;46.37;28.50;;;1.70;97.50;;;;;;5086631;28;20220;-63
2023/12/08 00:54:28;;;;;;;47.07;29.27;;;1.60;97.40;;;;;;5080209;28;20639;-63
2023/12/08 00:56:55;;;;;;;45.23;30.07;;;1.60;97.30;;;;;;5065760;28;20260;-63
2023/12/08 00:59:22;;;;;;;41.83;30.00;;;1.50;97.10;;;;;;5079536;28;21153;-63
2023/12/08 01:01:49;;;;;;;45.73;30.90;;;1.50;97.10;;;;;;5080300;28;20582;-63
2023/12/08 01:04:16;;;;;;;40.37;29.50;;;1.40;97.10;;;;;;5079966;28;20265;-63
2023/12/08 01:06:43;;;;;;;39.47;29.00;;;1.40;97.10;;;;;;5072188;28;20221;-64
2023/12/08 01:09:10;;;;;;;45.10;29.13;;;1.30;97.10;;;;;;5080118;28;20228;-64
2023/12/08 01:11:37;;;;;;;42.27;28.23;;;1.30;97.10;;;;;;5086004;28;20617;-63
2023/12/08 01:14:04;;;;;;;37.80;27.17;;;1.30;97.20;;;;;;5084111;28;20268;-64
2023/12/08 01:16:31;;;;;;;39.37;27.87;;;1.30;97.20;;;;;;5086062;28;20196;-64
2023/12/08 01:18:59;;;;;;;41.27;28.77;;;1.30;97.30;;;;;;5087431;28;20205;-63
2023/12/08 01:21:26;;;;;;;39.10;27.90;;;1.30;97.30;;;;;;5086761;28;20226;-64
2023/12/08 01:23:53;;;;;;;40.17;28.93;;;1.30;97.30;;;;;;5083789;28;20661;-64
2023/12/08 01:26:20;;;;;;;37.27;27.77;;;1.30;97.30;;;;;;5085906;28;20264;-64
2023/12/08 01:28:47;;;;;;;37.03;27.70;;;1.30;97.20;;;;;;5088548;28;20211;-63
2023/12/08 01:31:15;;;;;;;41.13;26.40;;;1.30;97.20;;;;;;5088318;28;20640;-63
2023/12/08 01:33:42;;;;;;;35.90;26.30;;;1.30;97.20;;;;;;5089482;28;20204;-63
2023/12/08 01:36:10;;;;;;;43.93;27.47;;;1.40;97.30;;;;;;5082322;28;20204;-63
2023/12/08 01:38:58;;;;;;;39.00;26.43;;;1.30;97.20;;;;;;5086216;28;20258;-63
2023/12/08 01:41:25;;;;;;;42.03;26.93;;;1.40;97.30;;;;;;5083515;28;20282;-63
2023/12/08 01:43:52;;;;;;;38.50;25.43;;;1.40;97.30;;;;;;5089827;28;20246;-63
2023/12/08 01:46:19;;;;;;;34.87;24.03;;;1.40;97.30;;;;;;5084271;28;20191;-63
2023/12/08 01:48:47;;;;;;;40.60;25.83;;;1.40;97.20;;;;;;5081932;28;20195;-63
2023/12/08 01:51:16;;;;;;;40.20;24.60;;;1.40;97.20;;;;;;5089282;28;20210;-63
2023/12/08 01:53:45;;;;;;;31.97;22.57;;;1.40;97.20;;;;;;5090000;28;20520;-63
2023/12/08 01:56:13;;;;;;;32.77;23.73;;;1.40;97.20;;;;;;5086245;28;20197;-63
2023/12/08 01:58:41;;;;;;;41.23;24.80;;;1.40;97.30;;;;;;5087286;28;20230;-63
2023/12/08 02:01:10;;;;;;;36.00;26.03;;;1.40;97.30;;;;;;5086354;28;20241;-63
2023/12/08 02:03:39;;;;;;;40.83;27.07;;;1.40;97.30;;;;;;5087597;28;20589;-63
2023/12/08 02:06:07;;;;;;;34.37;25.23;;;1.50;97.30;;;;;;5083806;28;20204;-64
2023/12/08 02:08:35;;;;;;;38.83;25.23;;;1.50;97.30;;;;;;5072193;28;20228;-64
2023/12/08 02:11:02;;;;;;;37.80;24.50;;;1.50;97.30;;;;;;5082294;28;20216;-63
2023/12/08 02:13:30;;;;;;;36.93;25.30;;;1.50;97.30;;;;;;5082969;28;20210;-63
2023/12/08 02:16:03;;;;;;;40.00;25.17;;;1.50;97.20;;;;;;5086104;28;20207;-63
2023/12/08 02:18:33;;;;;;;37.73;24.57;;;1.50;97.20;;;;;;5085384;28;20529;-63
2023/12/08 02:21:02;;;;;;;41.90;24.90;;;1.50;97.20;;;;;;5083335;28;20235;-63
2023/12/08 02:23:29;;;;;;;34.97;24.73;;;1.50;97.20;;;;;;5089190;28;20254;-63
2023/12/08 02:25:57;;;;;;;37.03;25.00;;;1.50;97.20;;;;;;5080836;28;20345;-63
2023/12/08 02:28:24;;;;;;;37.27;23.97;;;1.50;97.20;;;;;;5084332;28;20196;-63
2023/12/08 02:30:53;;;;;;;32.47;22.70;;;1.40;97.10;;;;;;5083976;28;20274;-63
2023/12/08 02:33:29;;;;;;;33.10;23.07;;;1.40;97.00;;;;;;5084135;28;20261;-63
2023/12/08 02:36:04;;;;;;;37.00;23.77;;;1.30;97.10;;;;;;5082159;28;20196;-63
2023/12/08 02:38:33;;;;;;;35.37;24.03;;;1.40;97.10;;;;;;5083057;28;20220;-63
2023/12/08 02:41:00;;;;;;;32.13;23.17;;;1.40;97.10;;;;;;5088278;28;20209;-63
2023/12/08 02:43:27;;;;;;;31.47;22.80;;;1.40;97.10;;;;;;5082238;28;20730;-63
2023/12/08 02:45:54;;;;;;;32.33;23.63;;;1.40;97.10;;;;;;5086368;28;20637;-63
2023/12/08 02:48:22;;;;;;;32.67;23.50;;;1.30;97.00;;;;;;5083531;28;20230;-63
2023/12/08 02:50:49;;;;;;;31.13;23.83;;;1.30;97.00;;;;;;5086516;28;20216;-63
2023/12/08 02:53:16;;;;;;;35.30;23.23;;;1.30;97.00;;;;;;5086842;28;20224;-63
2023/12/08 02:55:43;;;;;;;35.80;23.83;;;1.30;97.00;;;;;;5084428;28;20303;-63
2023/12/08 02:58:10;;;;;;;33.83;24.13;;;1.30;97.10;;;;;;5086764;28;20287;-63
2023/12/08 03:00:37;;;;;;;33.20;21.60;;;1.30;97.10;;;;;;5084531;28;20201;-63
2023/12/08 03:03:04;;;;;;;32.43;23.33;;;1.30;97.10;;;;;;5083033;28;20266;-63
2023/12/08 03:05:31;;;;;;;27.97;21.77;;;1.40;97.20;;;;;;5082168;28;20204;-63
2023/12/08 03:07:58;;;;;;;30.90;23.20;;;1.30;97.00;;;;;;5085447;28;20598;-63
2023/12/08 03:10:25;;;;;;;33.33;23.63;;;1.30;96.90;;;;;;5083955;28;20204;-63
2023/12/08 03:12:52;;;;;;;35.60;23.33;;;1.30;96.90;;;;;;5082282;28;20193;-63
2023/12/08 03:15:20;;;;;;;30.97;21.30;;;1.20;96.90;;;;;;5083204;28;20279;-63
2023/12/08 03:17:47;;;;;;;30.63;22.60;;;1.30;97.00;;;;;;5083671;28;20280;-64
2023/12/08 03:20:14;;;;;;;33.80;22.87;;;1.30;97.00;;;;;;5089978;28;20209;-63
2023/12/08 03:22:41;;;;;;;34.50;23.20;;;1.30;97.00;;;;;;5084700;28;20208;-63
2023/12/08 03:25:08;;;;;;;32.27;21.80;;;1.30;97.00;;;;;;5084404;28;20195;-63
2023/12/08 03:27:35;;;;;;;35.13;22.80;;;1.30;97.00;;;;;;5084783;28;20208;-63
2023/12/08 03:30:02;;;;;;;35.23;22.70;;;1.30;97.00;;;;;;5083724;28;20205;-63
2023/12/08 03:32:30;;;;;;;31.53;20.20;;;1.30;97.10;;;;;;5086021;28;20290;-62
2023/12/08 03:34:58;;;;;;;31.00;21.57;;;1.40;97.10;;;;;;5086793;28;20703;-63
2023/12/08 03:37:25;;;;;;;28.73;19.93;;;1.40;97.00;;;;;;5085922;28;20219;-63
2023/12/08 03:39:54;;;;;;;27.73;20.90;;;1.40;97.10;;;;;;5080058;28;20198;-63
2023/12/08 03:42:21;;;;;;;30.30;21.70;;;1.40;97.10;;;;;;5082221;28;20221;-63
2023/12/08 03:44:48;;;;;;;33.50;21.87;;;1.40;97.10;;;;;;5084602;28;20230;-63
2023/12/08 03:47:16;;;;;;;31.07;20.23;;;1.40;97.00;;;;;;5081677;28;20229;-64
2023/12/08 03:49:43;;;;;;;31.80;20.20;;;1.40;97.00;;;;;;5077083;28;20276;-63
2023/12/08 03:52:10;;;;;;;36.97;20.20;;;1.40;97.00;;;;;;5079824;28;20544;-63
2023/12/08 03:54:37;;;;;;;28.53;20.73;;;1.40;97.10;;;;;;5081736;28;20255;-63
2023/12/08 03:57:05;;;;;;;30.53;21.23;;;1.40;97.10;;;;;;5072945;28;20257;-63
2023/12/08 03:59:32;;;;;;;29.70;20.87;;;1.40;97.00;;;;;;5085118;28;20197;-63
2023/12/08 04:01:59;;;;;;;35.30;24.23;;;1.40;97.00;;;;;;5078973;28;20226;-63
2023/12/08 04:04:26;;;;;;;33.90;24.23;;;1.40;96.90;;;;;;5078881;28;20232;-63
2023/12/08 04:06:56;;;;;;;35.23;25.07;;;1.40;96.90;;;;;;5077596;28;20198;-63
2023/12/08 04:09:23;;;;;;;33.87;22.10;;;1.40;96.90;;;;;;5082634;28;20194;-63
2023/12/08 04:11:54;;;;;;;35.47;24.53;;;1.40;96.90;;;;;;5084190;28;20207;-63
2023/12/08 04:14:21;;;;;;;35.03;24.50;;;1.40;96.90;;;;;;5080548;28;20649;-63
2023/12/08 04:16:51;;;;;;;34.20;25.70;;;1.40;97.00;;;;;;5082609;28;20551;-64
2023/12/08 04:19:19;;;;;;;41.60;25.00;;;1.40;97.10;;;;;;5082915;28;20205;-63
2023/12/08 04:21:46;;;;;;;45.13;28.83;;;1.40;97.10;;;;;;5084439;28;20242;-63
2023/12/08 04:24:13;;;;;;;42.23;26.97;;;1.50;97.20;;;;;;5083993;28;20605;-63
2023/12/08 04:26:44;;;;;;;37.83;26.57;;;1.50;97.20;;;;;;5084823;28;20206;-63
2023/12/08 04:29:11;;;;;;;37.90;26.27;;;1.50;97.20;;;;;;5083914;28;20201;-63
2023/12/08 04:31:38;;;;;;;37.97;25.97;;;1.50;97.20;;;;;;5081416;28;20261;-63
2023/12/08 04:34:05;;;;;;;37.93;27.07;;;1.60;97.20;;;;;;5078494;28;20208;-63
2023/12/08 04:36:33;;;;;;;41.30;28.00;;;1.50;97.10;;;;;;5084242;28;20214;-63
2023/12/08 04:39:00;;;;;;;34.23;25.70;;;1.60;97.20;;;;;;5079556;28;20202;-63
2023/12/08 04:41:27;;;;;;;39.37;27.10;;;1.60;97.20;;;;;;5078797;28;20202;-62
2023/12/08 04:43:54;;;;;;;38.27;26.53;;;1.60;97.30;;;;;;5076396;28;20651;-62
2023/12/08 04:46:21;;;;;;;43.10;28.30;;;1.60;97.40;;;;;;5083481;28;20195;-62
2023/12/08 04:48:48;;;;;;;46.77;29.30;;;1.60;97.40;;;;;;5084184;28;20295;-63
2023/12/08 04:51:15;;;;;;;46.30;30.23;;;1.60;97.50;;;;;;5083799;28;20198;-63
2023/12/08 04:53:42;;;;;;;43.77;28.10;;;1.70;97.60;;;;;;5070171;28;20196;-63
2023/12/08 04:56:09;;;;;;;38.57;28.43;;;1.60;97.60;;;;;;5086416;28;20198;-63
2023/12/08 04:58:39;;;;;;;44.67;28.40;;;1.70;97.70;;;;;;5086724;28;20195;-63
2023/12/08 05:01:12;;;;;;;43.77;27.87;;;1.70;97.70;;;;;;5081009;28;20186;-63
2023/12/08 05:03:40;;;;;;;42.57;28.60;;;1.70;97.80;;;;;;5084041;28;20327;-63
2023/12/08 05:06:08;;;;;;;49.20;31.07;;;1.80;97.90;;;;;;5084242;28;20708;-63
2023/12/08 05:08:35;;;;;;;50.37;30.33;;;1.80;97.90;;;;;;5085709;28;20203;-63
2023/12/08 05:11:03;;;;;;;49.83;30.93;;;1.80;97.90;;;;;;5089227;28;20322;-63
2023/12/08 05:13:30;;;;;;;55.30;30.60;;;1.90;97.90;;;;;;5082971;28;20655;-62
2023/12/08 05:15:57;;;;;;;58.60;31.60;;;1.90;98.00;;;;;;5086601;28;20211;-62
2023/12/08 05:18:24;;;;;;;57.73;32.40;;;1.90;98.00;;;;;;5089304;28;20199;-63
2023/12/08 05:20:51;;;;;;;67.47;35.77;;;2.00;98.00;;;;;;5085897;28;20207;-63
2023/12/08 05:23:19;;;;;;;60.87;31.97;;;2.00;98.00;;;;;;5085556;28;20728;-63
2023/12/08 05:25:46;;;;;;;58.73;33.17;;;2.00;98.10;;;;;;5089982;28;20203;-63
2023/12/08 05:28:13;;;;;;;59.47;32.60;;;2.00;98.10;;;;;;5088229;28;20629;-62
2023/12/08 05:30:41;;;;;;;62.67;32.83;;;2.10;98.10;;;;;;5086898;28;20207;-63
2023/12/08 05:33:08;;;;;;;58.77;34.17;;;2.10;98.10;;;;;;5084851;28;20286;-63
2023/12/08 05:35:35;;;;;;;66.07;33.50;;;2.10;98.10;;;;;;5084981;28;20207;-63
2023/12/08 05:38:03;;;;;;;57.27;32.33;;;2.10;98.10;;;;;;5084476;28;20206;-63
2023/12/08 05:40:30;;;;;;;55.27;32.07;;;2.10;98.20;;;;;;5090129;28;20516;-63
2023/12/08 05:42:57;;;;;;;55.80;31.53;;;2.20;98.30;;;;;;5081567;28;20568;-63
2023/12/08 05:45:24;;;;;;;62.10;32.53;;;2.20;98.30;;;;;;5086715;28;20193;-63
2023/12/08 05:47:51;;;;;;;55.57;30.40;;;2.30;98.30;;;;;;5081354;28;20199;-63
2023/12/08 05:50:18;;;;;;;63.63;32.17;;;2.30;98.30;;;;;;5083786;28;20265;-62
2023/12/08 05:52:45;;;;;;;57.87;32.80;;;2.20;98.20;;;;;;5084300;28;20523;-63
2023/12/08 05:55:12;;;;;;;58.00;30.90;;;2.20;98.30;;;;;;5079483;28;20203;-63
2023/12/08 05:57:40;;;;;;;58.77;31.87;;;2.30;98.30;;;;;;5086404;28;20207;-63
2023/12/08 06:00:10;;;;;;;65.67;32.80;;;2.30;98.30;;;;;;5085423;28;20215;-63
2023/12/08 06:02:40;;;;;;;54.03;31.70;;;2.30;98.30;;;;;;5085404;28;20215;-63
2023/12/08 06:05:08;;;;;;;63.30;33.00;;;2.40;98.40;;;;;;5087788;28;20234;-62
2023/12/08 06:07:36;;;;;;;62.67;32.17;;;2.40;98.40;;;;;;5082789;28;20196;-63
2023/12/08 06:10:04;;;;;;;57.83;33.23;;;2.40;98.30;;;;;;5087265;28;20267;-62
2023/12/08 06:12:31;;;;;;;68.77;33.63;;;2.50;98.30;;;;;;5086484;28;20349;-62
2023/12/08 06:14:59;;;;;;;64.03;33.73;;;2.40;98.30;;;;;;5086706;28;20210;-62
2023/12/08 06:17:27;;;;;;;58.90;31.67;;;2.50;98.30;;;;;;5073180;28;20202;-62
2023/12/08 06:19:56;;;;;;;65.20;34.87;;;2.50;98.30;;;;;;5086638;28;20233;-63
2023/12/08 06:22:23;;;;;;;61.27;32.83;;;2.50;98.30;;;;;;5087283;28;20222;-62
2023/12/08 06:24:50;;;;;;;60.60;31.20;;;2.50;98.30;;;;;;5084038;28;20218;-62
2023/12/08 06:27:17;;;;;;;58.80;31.57;;;2.50;98.30;;;;;;5085402;28;20201;-62
2023/12/08 06:29:44;;;;;;;61.40;33.10;;;2.50;98.40;;;;;;5084902;28;20203;-63
2023/12/08 06:32:11;;;;;;;56.60;32.53;;;2.50;98.40;;;;;;5081052;28;20245;-63
2023/12/08 06:34:38;;;;;;;55.63;32.90;;;2.50;98.40;;;;;;5082945;28;20628;-62
2023/12/08 06:37:06;;;;;;;64.13;34.03;;;2.50;98.50;;;;;;5083534;28;20239;-62
2023/12/08 06:39:33;;;;;;;53.37;32.37;;;2.60;98.50;;;;;;5089512;28;20380;-62
2023/12/08 06:42:00;;;;;;;56.73;32.17;;;2.60;98.50;;;;;;5084578;28;20199;-62
2023/12/08 06:44:29;;;;;;;52.37;30.70;;;2.60;98.50;;;;;;5084850;28;20194;-62
2023/12/08 06:46:56;;;;;;;51.10;31.00;;;2.60;98.50;;;;;;5080237;28;20204;-62
2023/12/08 06:49:23;;;;;;;65.80;30.80;;;2.70;98.50;;;;;;5081592;28;20248;-63
2023/12/08 06:51:50;;;;;;;66.13;31.93;;;2.70;98.50;;;;;;5087139;28;20282;-62
2023/12/08 06:54:18;;;;;;;60.57;32.67;;;2.70;98.60;;;;;;5078526;28;20675;-62
2023/12/08 06:56:46;;;;;;;63.10;32.93;;;2.70;98.60;;;;;;5082214;28;20211;-62
2023/12/08 06:59:14;;;;;;;70.33;34.87;;;2.70;98.60;;;;;;5078959;28;20224;-62
2023/12/08 07:01:41;;;;;;;72.87;34.57;;;2.80;98.60;;;;;;5085578;28;20231;-62
2023/12/08 07:04:09;;;;;;;62.80;33.67;;;2.70;98.60;;;;;;5089208;28;20707;-62
2023/12/08 07:06:37;;;;;;;70.07;36.67;;;2.80;98.60;;;;;;5082506;28;20271;-62
2023/12/08 07:09:05;;;;;;;79.93;37.10;;;2.80;98.60;;;;;;5082107;28;20192;-62
2023/12/08 07:11:33;;;;;;;74.10;34.47;;;2.80;98.60;;;;;;5084497;28;20258;-62
2023/12/08 07:14:00;;;;;;;68.33;35.07;;;2.80;98.50;;;;;;5084340;28;20580;-62
2023/12/08 07:16:28;;;;;;;65.63;34.07;;;2.80;98.60;;;;;;5087494;28;20204;-62
2023/12/08 07:18:55;;;;;;;104.00;38.77;;;2.80;98.60;;;;;;5086170;28;20618;-62
2023/12/08 07:21:24;;;;;;;70.83;34.33;;;2.90;98.60;;;;;;5086325;28;20547;-63
2023/12/08 07:23:51;;;;;;;72.67;35.53;;;2.80;98.60;;;;;;5089586;28;20212;-62
2023/12/08 07:26:18;;;;;;;93.07;37.63;;;2.80;98.60;;;;;;5083737;28;20206;-62
2023/12/08 07:28:45;;;;;;;93.50;39.07;;;2.90;98.60;;;;;;5067796;28;20195;-62
2023/12/08 07:31:13;;;;;;;87.03;37.33;;;2.90;98.60;;;;;;5086165;28;20216;-63
2023/12/08 07:33:41;;;;;;;110.57;38.60;;;2.90;98.60;;;;;;5084917;28;20642;-62
2023/12/08 07:36:08;;;;;;;81.43;37.40;;;2.90;98.60;;;;;;5082735;28;20204;-62
2023/12/08 07:38:35;;;;;;;88.57;39.93;;;2.90;98.60;;;;;;5083241;28;20208;-62
2023/12/08 07:41:02;;;;;;;90.53;40.63;;;2.90;98.60;;;;;;5080828;28;20201;-62
2023/12/08 07:43:30;;;;;;;96.47;39.77;;;2.90;98.60;;;;;;5088771;28;20681;-62
2023/12/08 07:45:57;;;;;;;83.67;37.60;;;2.90;98.70;;;;;;5078617;28;20664;-61
2023/12/08 07:48:24;;;;;;;81.53;37.13;;;3.00;98.80;;;;;;5063633;28;20211;-61
2023/12/08 07:50:52;;;;;;;111.97;42.33;;;3.00;98.80;;;;;;5080554;28;20201;-61
2023/12/08 07:53:19;;;;;;;107.30;43.37;;;3.00;98.80;;;;;;5080061;28;20199;-62
2023/12/08 07:55:46;;;;;;;96.63;42.10;;;3.10;98.80;;;;;;5082171;28;20197;-62
2023/12/08 07:58:14;;;;;;;121.70;42.57;;;3.10;98.90;;;;;;5086590;28;20283;-62
2023/12/08 08:00:42;;;;;;;111.83;42.20;;;3.20;98.90;;;;;;5077409;28;20256;-62
2023/12/08 08:03:09;;;;;;;134.27;46.57;;;3.20;98.90;;;;;;5084799;28;20246;-62
2023/12/08 08:05:37;;;;;;;122.33;47.00;;;3.20;98.80;;;;;;5087520;28;20212;-62
2023/12/08 08:08:04;;;;;;;117.80;45.43;;;3.20;98.70;;;;;;5079955;28;20196;-62
2023/12/08 08:10:32;;;;;;;106.03;43.47;;;3.30;98.80;;;;;;5083372;28;20196;-62
2023/12/08 08:12:59;;;;;;;112.63;43.47;;;3.30;98.70;;;;;;5083655;28;20257;-62
2023/12/08 08:15:26;;;;;;;107.80;43.97;;;3.30;98.70;;;;;;5078615;28;20655;-62
2023/12/08 08:17:53;;;;;;;98.60;44.87;;;3.30;98.80;;;;;;5083072;28;20573;-63
2023/12/08 08:20:21;;;;;;;92.43;40.93;;;3.30;98.80;;;;;;5081038;28;20582;-63
2023/12/08 08:22:48;;;;;;;89.60;40.77;;;3.40;98.80;;;;;;5081247;28;20235;-61
2023/12/08 08:25:15;;;;;;;74.50;39.87;;;3.40;98.70;;;;;;5079991;28;20197;-62
2023/12/08 08:27:42;;;;;;;88.73;43.60;;;3.40;98.70;;;;;;5079525;28;20236;-62
2023/12/08 08:30:10;;;;;;;76.67;43.00;;;3.30;98.70;;;;;;5082009;28;20254;-62
2023/12/08 08:32:37;;;;;;;83.30;41.80;;;3.40;98.80;;;;;;5083850;28;20224;-62
2023/12/08 08:35:05;;;;;;;84.40;42.10;;;3.40;98.90;;;;;;5080592;28;20223;-62
2023/12/08 08:37:32;;;;;;;74.97;40.40;;;3.40;98.90;;;;;;5081461;28;20646;-62
2023/12/08 08:39:59;;;;;;;75.63;41.90;;;3.40;99.00;;;;;;5082749;28;20216;-62
2023/12/08 08:42:27;;;;;;;78.40;40.53;;;3.40;99.00;;;;;;5082925;28;20200;-62
2023/12/08 08:44:54;;;;;;;100.13;43.13;;;3.40;99.10;;;;;;5083807;28;20270;-62
2023/12/08 08:47:21;;;;;;;94.30;44.67;;;3.50;99.10;;;;;;5080724;28;20539;-61
2023/12/08 08:49:48;;;;;;;100.70;46.57;;;3.50;99.10;;;;;;5081321;28;20286;-62
2023/12/08 08:52:15;;;;;;;112.97;50.40;;;3.50;99.10;;;;;;5083739;28;20626;-62
2023/12/08 08:55:08;;;;;;;105.57;50.43;;;3.60;99.20;;;;;;5080338;28;20276;-62
2023/12/08 08:57:35;;;;;;;112.53;50.30;;;3.50;99.00;;;;;;5071224;28;20204;-62
2023/12/08 09:00:04;;;;;;;102.20;48.87;;;3.60;99.00;;;;;;5078325;28;20217;-62
2023/12/08 09:02:31;;;;;;;116.90;51.37;;;3.60;99.00;;;;;;5085689;28;20284;-62
2023/12/08 09:04:58;;;;;;;126.03;51.23;;;3.60;99.10;;;;;;5084522;28;20674;-62
2023/12/08 09:07:25;;;;;;;125.13;55.37;;;3.60;99.10;;;;;;5089330;28;20211;-62
2023/12/08 09:09:53;;;;;;;125.07;53.67;;;3.60;99.10;;;;;;5083559;28;20239;-62
2023/12/08 09:12:20;;;;;;;125.60;54.20;;;3.70;99.20;;;;;;5078714;28;20196;-62
2023/12/08 09:14:47;;;;;;;147.67;66.37;;;3.70;99.20;;;;;;5078824;28;20211;-62
2023/12/08 09:17:14;;;;;;;145.47;63.77;;;3.70;99.20;;;;;;5085339;28;20208;-62
2023/12/08 09:19:41;;;;;;;170.27;73.80;;;3.80;99.30;;;;;;5066248;28;20209;-62
2023/12/08 09:22:08;;;;;;;142.47;60.50;;;3.80;99.30;;;;;;5085829;28;20196;-62
2023/12/08 09:24:35;;;;;;;130.43;51.20;;;3.80;99.30;;;;;;5084717;28;20219;-62
2023/12/08 09:27:03;;;;;;;168.27;65.47;;;3.80;99.30;;;;;;5082795;28;20206;-62
2023/12/08 09:29:30;;;;;;;189.03;70.80;;;3.90;99.10;;;;;;5084020;28;20585;-62
2023/12/08 09:31:57;;;;;;;146.23;57.10;;;3.80;98.90;;;;;;5079782;28;20193;-62
2023/12/08 09:34:24;;;;;;;139.13;49.33;;;3.70;98.80;;;;;;5083364;28;20601;-62
2023/12/08 09:36:52;;;;;;;146.33;45.70;;;3.70;98.90;;;;;;5088166;28;20205;-62
2023/12/08 09:39:39;;;;;;;108.83;42.93;;;3.70;99.00;;;;;;5083426;28;20196;-62
2023/12/08 09:42:13;;;;;;;111.70;42.97;;;3.60;99.10;;;;;;5084363;28;20204;-62
2023/12/08 09:44:40;;;;;;;120.23;46.37;;;3.60;99.20;;;;;;5083930;28;20209;-62
2023/12/08 09:47:10;;;;;;;94.27;44.57;;;3.60;99.70;;;;;;5092755;28;20701;-62
2023/12/08 09:49:44;;;;;;;104.07;46.17;;;3.60;99.60;;;;;;5083235;28;20212;-62
2023/12/08 09:52:14;;;;;;;110.63;45.70;;;3.60;99.70;;;;;;5087864;28;20207;-62
2023/12/08 09:54:42;;;;;;;121.50;48.70;;;3.70;99.80;;;;;;5088960;28;20633;-62
2023/12/08 09:57:10;;;;;;;130.80;52.47;;;3.70;99.80;;;;;;5087330;28;20200;-62
2023/12/08 09:59:38;;;;;;;127.13;52.93;;;3.80;99.90;;;;;;5086846;28;20195;-62
2023/12/08 10:02:08;;;;;;;192.00;62.57;;;3.80;99.90;;;;;;5080302;28;20581;-62
2023/12/08 10:04:36;;;;;;;173.43;63.50;;;3.90;99.90;;;;;;5085286;28;20321;-62
2023/12/08 10:07:05;;;;;;;166.43;63.70;;;3.90;99.90;;;;;;5088429;28;20230;-63
2023/12/08 10:09:35;;;;;;;174.10;69.73;;;4.00;99.90;;;;;;5087484;28;20283;-63
2023/12/08 10:12:03;;;;;;;191.03;67.63;;;4.00;99.90;;;;;;5083992;28;20213;-62
2023/12/08 10:14:31;;;;;;;174.13;65.63;;;4.10;99.90;;;;;;5084857;28;20201;-62
2023/12/08 10:16:59;;;;;;;151.40;63.40;;;4.10;99.80;;;;;;5081020;28;20209;-62
2023/12/08 10:19:26;;;;;;;145.80;56.97;;;4.10;99.80;;;;;;5086563;28;20269;-62
2023/12/08 10:22:01;;;;;;;130.80;57.73;;;4.20;99.80;;;;;;5084292;28;20235;-62
2023/12/08 10:24:30;;;;;;;119.40;55.50;;;4.20;99.90;;;;;;5082770;28;20230;-62
2023/12/08 10:27:01;;;;;;;125.60;56.40;;;4.20;99.90;;;;;;5085854;28;20195;-62
2023/12/08 10:29:32;;;;;;;120.87;53.67;;;4.30;99.90;;;;;;5084802;28;20536;-62
2023/12/08 10:31:59;;;;;;;127.23;54.93;;;4.30;99.90;;;;;;5083778;28;20207;-61
2023/12/08 10:34:27;;;;;;;121.17;55.13;;;4.40;99.90;;;;;;5082292;28;20198;-61
2023/12/08 10:36:55;;;;;;;114.73;52.30;;;4.50;99.90;;;;;;5082440;28;20678;-62
2023/12/08 10:39:23;;;;;;;93.53;45.27;;;4.50;99.90;;;;;;5081648;28;20226;-62
2023/12/08 10:41:51;;;;;;;94.53;48.87;;;4.50;99.90;;;;;;5082458;28;20279;-62
2023/12/08 10:44:20;;;;;;;96.17;49.90;;;4.60;99.90;;;;;;5081592;28;20223;-62
2023/12/08 10:46:48;;;;;;;127.97;57.67;;;4.60;99.90;;;;;;5084049;28;20283;-62
2023/12/08 10:49:20;;;;;;;111.60;52.57;;;4.60;99.90;;;;;;5066033;28;20200;-62
2023/12/08 10:51:48;;;;;;;115.47;52.60;;;4.80;99.90;;;;;;5079253;28;20186;-62
2023/12/08 10:54:19;;;;;;;100.63;49.17;;;4.80;99.90;;;;;;5066401;28;20209;-63
2023/12/08 10:56:48;;;;;;;91.20;45.47;;;4.90;99.90;;;;;;5082103;28;20206;-62
2023/12/08 10:59:23;;;;;;;86.27;46.67;;;4.90;99.90;;;;;;5086768;28;20202;-62
2023/12/08 11:01:54;;;;;;;112.27;49.33;;;5.00;99.90;;;;;;5084033;28;20310;-63
2023/12/08 11:04:23;;;;;;;129.37;57.37;;;5.10;99.90;;;;;;5083906;28;20422;-62
2023/12/08 11:07:05;;;;;;;145.57;59.77;;;5.10;99.90;;;;;;5101945;28;20192;-62
2023/12/08 11:09:37;;;;;;;143.83;57.40;;;5.20;99.90;;;;;;5103980;28;20633;-62
2023/12/08 11:12:06;;;;;;;130.50;56.17;;;5.20;99.90;;;;;;5106628;28;20208;-62
2023/12/08 11:14:40;;;;;;;116.63;49.83;;;5.20;99.90;;;;;;5099120;28;20646;-62
2023/12/08 11:17:20;;;;;;;97.97;47.67;;;5.20;99.90;;;;;;5081020;28;20202;-62
2023/12/08 11:19:48;;;;;;;104.43;47.90;;;5.20;99.90;;;;;;5102557;28;20609;-62
2023/12/08 11:22:15;;;;;;;112.40;50.50;;;5.20;99.90;;;;;;5103629;28;20195;-62
2023/12/08 11:24:43;;;;;;;126.77;54.30;;;5.20;99.90;;;;;;5103317;28;20232;-62
2023/12/08 11:27:13;;;;;;;117.33;56.20;;;5.20;99.90;;;;;;5102138;28;20197;-62
2023/12/08 11:29:50;;;;;;;130.57;56.47;;;5.30;99.90;;;;;;5103177;28;20215;-62
2023/12/08 11:32:20;;;;;;;139.67;60.03;;;5.30;99.90;;;;;;5105023;27;20550;-62
2023/12/08 11:34:56;;;;;;;156.70;60.63;;;5.30;99.90;;;;;;5105129;28;20258;-62
2023/12/08 11:37:24;;;;;;;129.63;55.40;;;5.40;99.90;;;;;;5100964;28;20583;-62
2023/12/08 11:39:59;;;;;;;139.17;57.70;;;5.40;99.90;;;;;;5101799;28;20194;-62
2023/12/08 11:42:27;;;;;;;123.90;54.60;;;5.40;99.90;;;;;;5104339;28;20498;-62
2023/12/08 11:44:57;;;;;;;127.87;55.27;;;5.40;99.90;;;;;;5098185;28;20216;-62
2023/12/08 11:47:26;;;;;;;132.27;54.57;;;5.40;99.90;;;;;;5104267;28;20196;-62
2023/12/08 11:49:55;;;;;;;109.90;51.63;;;5.40;99.90;;;;;;5108369;28;20195;-62
2023/12/08 11:52:28;;;;;;;127.03;51.60;;;5.40;99.90;;;;;;5102351;27;20609;-62
2023/12/08 11:55:20;;;;;;;99.87;48.57;;;5.40;99.90;;;;;;5104142;28;20230;-62
2023/12/08 11:58:03;;;;;;;107.03;48.50;;;5.40;99.90;;;;;;5105324;28;20199;-62
2023/12/08 12:00:34;;;;;;;99.77;46.73;;;5.40;99.90;;;;;;5106769;28;20195;-62
2023/12/08 12:03:05;;;;;;;98.47;49.67;;;5.40;99.90;;;;;;5103648;28;20210;-63
2023/12/08 12:05:33;;;;;;;87.80;46.70;;;5.40;99.90;;;;;;5079325;28;20213;-62
2023/12/08 12:08:00;;;;;;;99.43;46.57;;;5.40;99.90;;;;;;5082277;28;20212;-62
2023/12/08 12:10:35;;;;;;;84.33;44.53;;;5.40;99.90;;;;;;5078203;28;20227;-63
2023/12/08 12:13:05;;;;;;;84.43;45.67;;;5.40;99.90;;;;;;5082150;28;20280;-62
2023/12/08 12:15:33;;;;;;;92.00;46.57;;;5.50;99.90;;;;;;5082938;28;20228;-62
2023/12/08 12:18:01;;;;;;;87.93;43.03;;;5.50;99.90;;;;;;5080150;28;20201;-62
2023/12/08 12:20:31;;;;;;;87.30;44.73;;;5.50;99.90;;;;;;5080412;28;20205;-62
2023/12/08 12:22:58;;;;;;;83.70;44.53;;;5.60;99.90;;;;;;5081523;28;20216;-62
2023/12/08 12:25:26;;;;;;;91.17;46.50;;;5.60;99.90;;;;;;5079132;28;20226;-62
2023/12/08 12:27:54;;;;;;;82.77;43.77;;;5.60;99.90;;;;;;5084267;28;20228;-62
2023/12/08 12:30:22;;;;;;;78.87;43.20;;;5.60;99.90;;;;;;5081466;28;20205;-62
2023/12/08 12:32:50;;;;;;;87.63;44.90;;;5.60;99.90;;;;;;5078019;28;20603;-62
2023/12/08 12:35:17;;;;;;;81.23;44.47;;;5.70;99.90;;;;;;5083803;28;20215;-62
2023/12/08 12:37:46;;;;;;;82.10;44.87;;;5.70;99.90;;;;;;5080567;28;20201;-62